createdAt,value
2023-05-06T00:00:08.613Z,14.52
2023-05-06T00:02:45.255Z,15.85
2023-05-06T00:05:14.153Z,15.18
2023-05-06T00:07:41.929Z,15.97
2023-05-06T00:10:10.653Z,14.80
2023-05-06T00:12:38.649Z,15.55
2023-05-06T00:15:08.034Z,16.65
2023-05-06T00:17:36.375Z,15.80
2023-05-06T00:20:07.218Z,16.80
2023-05-06T00:22:35.422Z,16.65
2023-05-06T00:25:03.677Z,17.15
2023-05-06T00:27:31.587Z,15.43
2023-05-06T00:29:59.426Z,15.65
2023-05-06T00:32:28.295Z,16.77
2023-05-06T00:34:56.179Z,17.55
2023-05-06T00:37:25.381Z,17.48
2023-05-06T00:39:53.104Z,15.65
2023-05-06T00:42:22.500Z,16.75
2023-05-06T00:44:50.476Z,16.67
2023-05-06T00:47:19.274Z,17.58
2023-05-06T00:49:48.501Z,16.25
2023-05-06T00:52:18.607Z,15.90
2023-05-06T00:54:47.874Z,16.25
2023-05-06T00:57:15.700Z,17.80
2023-05-06T00:59:43.462Z,20.35
2023-05-06T01:02:11.625Z,17.95
2023-05-06T01:04:41.420Z,18.10
2023-05-06T01:07:17.284Z,16.98
2023-05-06T01:09:53.540Z,16.30
2023-05-06T01:12:28.998Z,17.35
2023-05-06T01:15:06.532Z,17.40
2023-05-06T01:17:37.111Z,15.52
2023-05-06T01:20:10.706Z,16.50
2023-05-06T01:22:39.410Z,17.10
2023-05-06T01:25:09.474Z,18.63
2023-05-06T01:27:37.479Z,15.15
2023-05-06T01:30:07.474Z,15.60
2023-05-06T01:32:41.860Z,19.73
2023-05-06T01:35:17.962Z,16.63
2023-05-06T01:37:50.794Z,17.23
2023-05-06T01:40:20.744Z,16.95
2023-05-06T01:42:50.827Z,16.52
2023-05-06T01:45:20.906Z,19.02
2023-05-06T01:47:49.291Z,17.00
2023-05-06T01:50:17.210Z,18.55
2023-05-06T01:52:44.994Z,18.65
2023-05-06T01:55:13.546Z,19.33
2023-05-06T01:57:42.985Z,17.00
2023-05-06T02:00:11.863Z,16.90
2023-05-06T02:02:42.398Z,18.40
2023-05-06T02:05:10.985Z,17.05
2023-05-06T02:07:44.076Z,19.38
2023-05-06T02:10:12.246Z,17.17
2023-05-06T02:12:45.341Z,15.17
2023-05-06T02:15:13.294Z,17.42
2023-05-06T02:17:41.072Z,19.65
2023-05-06T02:20:10.562Z,16.17
2023-05-06T02:22:38.431Z,17.88
2023-05-06T02:25:07.752Z,17.73
2023-05-06T02:27:35.685Z,16.92
2023-05-06T02:30:06.223Z,18.67
2023-05-06T02:32:34.103Z,16.45
2023-05-06T02:35:01.893Z,17.95
2023-05-06T02:37:29.790Z,17.90
2023-05-06T02:39:57.637Z,16.88
2023-05-06T02:42:25.785Z,17.27
2023-05-06T02:44:53.585Z,17.85
2023-05-06T02:47:22.852Z,15.23
2023-05-06T02:49:50.668Z,19.53
2023-05-06T02:52:19.774Z,18.27
2023-05-06T02:54:47.536Z,17.45
2023-05-06T02:57:15.359Z,15.90
2023-05-06T02:59:43.242Z,16.50
2023-05-06T03:02:11.032Z,15.17
2023-05-06T03:04:40.435Z,16.80
2023-05-06T03:07:08.440Z,16.70
2023-05-06T03:09:36.291Z,18.10
2023-05-06T03:12:04.465Z,18.00
2023-05-06T03:14:32.317Z,17.57
2023-05-06T03:17:00.984Z,17.63
2023-05-06T03:19:29.462Z,16.40
2023-05-06T03:21:58.637Z,17.23
2023-05-06T03:24:27.509Z,15.73
2023-05-06T03:26:55.639Z,16.47
2023-05-06T03:29:23.705Z,17.27
2023-05-06T03:31:53.077Z,17.38
2023-05-06T03:34:22.794Z,15.93
2023-05-06T03:36:50.651Z,14.88
2023-05-06T03:39:20.357Z,16.60
2023-05-06T03:41:48.393Z,15.23
2023-05-06T03:44:16.455Z,16.70
2023-05-06T03:46:44.639Z,14.70
2023-05-06T03:49:13.009Z,14.68
2023-05-06T03:51:42.323Z,16.50
2023-05-06T03:54:10.405Z,14.45
2023-05-06T03:56:39.560Z,15.18
2023-05-06T03:59:07.495Z,14.93
2023-05-06T04:01:35.381Z,15.55
2023-05-06T04:04:03.356Z,15.43
2023-05-06T04:06:31.683Z,15.05
2023-05-06T04:08:59.446Z,13.68
2023-05-06T04:11:29.730Z,14.73
2023-05-06T04:14:01.088Z,14.15
2023-05-06T04:16:29.383Z,14.10
2023-05-06T04:18:57.572Z,14.30
2023-05-06T04:21:26.204Z,13.32
2023-05-06T04:24:00.129Z,15.18
2023-05-06T04:26:35.077Z,15.43
2023-05-06T04:29:04.766Z,13.80
2023-05-06T04:31:35.440Z,14.60
2023-05-06T04:34:07.841Z,13.85
2023-05-06T04:36:37.191Z,15.00
2023-05-06T04:39:14.015Z,13.88
2023-05-06T04:41:42.868Z,15.10
2023-05-06T04:44:14.140Z,16.75
2023-05-06T04:46:44.360Z,14.95
2023-05-06T04:49:12.682Z,14.73
2023-05-06T04:51:42.153Z,14.60
2023-05-06T04:54:09.991Z,13.40
2023-05-06T04:56:38.603Z,14.93
2023-05-06T04:59:07.926Z,13.10
2023-05-06T05:01:37.531Z,12.27
2023-05-06T05:04:05.622Z,11.52
2023-05-06T05:06:33.379Z,12.63
2023-05-06T05:09:01.672Z,11.70
2023-05-06T05:11:30.395Z,12.30
2023-05-06T05:14:01.889Z,11.90
2023-05-06T05:16:31.391Z,11.73
2023-05-06T05:19:03.322Z,12.33
2023-05-06T05:21:32.920Z,11.95
2023-05-06T05:24:01.773Z,13.65
2023-05-06T05:26:30.564Z,16.65
2023-05-06T05:29:00.433Z,15.13
2023-05-06T05:31:31.165Z,21.73
2023-05-06T05:34:00.668Z,15.68
2023-05-06T05:36:29.155Z,13.27
2023-05-06T05:38:59.269Z,12.52
2023-05-06T05:41:29.698Z,14.15
2023-05-06T05:43:57.482Z,13.87
2023-05-06T05:46:27.453Z,13.68
2023-05-06T05:48:56.997Z,15.52
2023-05-06T05:51:26.615Z,14.90
2023-05-06T05:53:55.266Z,15.98
2023-05-06T05:56:26.329Z,16.03
2023-05-06T05:58:54.978Z,15.45
2023-05-06T06:01:22.936Z,18.55
2023-05-06T06:03:50.952Z,18.33
2023-05-06T06:06:18.777Z,17.63
2023-05-06T06:08:48.421Z,19.50
2023-05-06T06:11:16.768Z,22.75
2023-05-06T06:14:01.414Z,21.27
2023-05-06T06:16:30.973Z,21.98
2023-05-06T06:18:59.045Z,22.15
2023-05-06T06:21:29.558Z,22.07
2023-05-06T06:23:59.232Z,21.42
2023-05-06T06:26:27.397Z,21.35
2023-05-06T06:28:55.541Z,23.70
2023-05-06T06:31:23.530Z,22.23
2023-05-06T06:33:54.914Z,25.30
2023-05-06T06:36:24.992Z,25.48
2023-05-06T06:39:08.018Z,30.85
2023-05-06T06:41:40.310Z,23.95
2023-05-06T06:44:08.806Z,23.85
2023-05-06T06:46:36.720Z,26.83
2023-05-06T06:49:05.071Z,28.17
2023-05-06T06:51:32.889Z,26.13
2023-05-06T06:54:02.095Z,25.45
2023-05-06T06:56:30.703Z,25.17
2023-05-06T06:58:58.511Z,26.77
2023-05-06T07:01:26.499Z,28.60
2023-05-06T07:03:54.514Z,29.98
2023-05-06T07:06:22.451Z,27.85
2023-05-06T07:08:50.163Z,28.38
2023-05-06T07:11:19.367Z,25.93
2023-05-06T07:13:47.104Z,26.35
2023-05-06T07:16:14.925Z,25.42
2023-05-06T07:18:42.748Z,26.00
2023-05-06T07:21:10.477Z,21.77
2023-05-06T07:23:38.214Z,24.23
2023-05-06T07:26:06.119Z,24.90
2023-05-06T07:28:35.325Z,22.63
2023-05-06T07:31:03.209Z,21.58
2023-05-06T07:33:31.436Z,25.65
2023-05-06T07:35:59.261Z,22.67
2023-05-06T07:38:27.025Z,24.25
2023-05-06T07:40:54.831Z,22.35
2023-05-06T07:43:22.985Z,18.90
2023-05-06T07:45:52.283Z,20.67
2023-05-06T07:48:20.449Z,20.23
2023-05-06T07:50:48.323Z,24.00
2023-05-06T07:53:16.077Z,22.77
2023-05-06T07:55:43.843Z,18.05
2023-05-06T07:58:11.641Z,19.27
2023-05-06T08:00:39.564Z,21.20
2023-05-06T08:03:08.759Z,21.05
2023-05-06T08:05:36.720Z,22.13
2023-05-06T08:08:04.717Z,16.90
2023-05-06T08:10:32.478Z,18.67
2023-05-06T08:13:00.376Z,18.10
2023-05-06T08:15:28.249Z,18.35
2023-05-06T08:18:02.114Z,20.48
2023-05-06T08:20:36.456Z,20.20
2023-05-06T08:23:04.258Z,18.52
2023-05-06T08:25:32.122Z,19.93
2023-05-06T08:27:59.953Z,22.25
2023-05-06T08:30:29.609Z,20.23
2023-05-06T08:32:57.375Z,17.23
2023-05-06T08:35:25.170Z,18.50
2023-05-06T08:37:54.374Z,22.23
2023-05-06T08:40:23.983Z,21.65
2023-05-06T08:42:51.928Z,18.77
2023-05-06T08:45:20.311Z,16.15
2023-05-06T08:47:48.254Z,18.05
2023-05-06T08:50:16.664Z,20.37
2023-05-06T08:52:45.022Z,13.00
2023-05-06T08:55:14.996Z,17.30
2023-05-06T08:57:45.543Z,20.90
2023-05-06T09:00:15.075Z,16.92
2023-05-06T09:02:43.860Z,20.03
2023-05-06T09:05:12.527Z,16.50
2023-05-06T09:07:40.870Z,17.73
2023-05-06T09:10:13.100Z,15.27
2023-05-06T09:12:42.456Z,19.60
2023-05-06T09:15:11.402Z,14.40
2023-05-06T09:17:39.508Z,16.10
2023-05-06T09:20:09.558Z,18.80
2023-05-06T09:22:39.631Z,15.05
2023-05-06T09:25:08.417Z,23.92
2023-05-06T09:27:37.357Z,12.60
2023-05-06T09:30:08.567Z,16.92
2023-05-06T09:32:39.305Z,20.35
2023-05-06T09:35:09.613Z,14.18
2023-05-06T09:37:37.992Z,16.38
2023-05-06T09:40:06.767Z,13.57
2023-05-06T09:42:35.749Z,16.08
2023-05-06T09:45:10.205Z,16.15
2023-05-06T09:47:38.599Z,13.90
2023-05-06T09:50:07.600Z,13.32
2023-05-06T09:52:35.945Z,16.00
2023-05-06T09:55:05.022Z,16.10
2023-05-06T09:57:33.710Z,13.75
2023-05-06T10:00:03.797Z,13.85
2023-05-06T10:02:43.707Z,10.90
2023-05-06T10:05:13.003Z,13.03
2023-05-06T10:07:41.846Z,14.13
2023-05-06T10:10:12.979Z,12.77
2023-05-06T10:12:40.952Z,13.73
2023-05-06T10:15:10.459Z,13.07
2023-05-06T10:17:40.891Z,12.63
2023-05-06T10:20:14.224Z,16.73
2023-05-06T10:22:51.125Z,13.98
2023-05-06T10:25:26.886Z,12.07
2023-05-06T10:27:54.697Z,14.95
2023-05-06T10:30:24.786Z,12.27
2023-05-06T10:32:54.193Z,12.65
2023-05-06T10:35:33.673Z,12.82
2023-05-06T10:38:04.374Z,11.82
2023-05-06T10:40:32.798Z,14.25
2023-05-06T10:43:26.675Z,10.63
2023-05-06T10:46:16.392Z,15.73
2023-05-06T10:49:18.409Z,16.95
2023-05-06T10:52:11.666Z,17.48
2023-05-06T10:54:48.803Z,17.45
2023-05-06T10:57:16.665Z,15.93
2023-05-06T10:59:47.867Z,18.58
2023-05-06T11:02:19.890Z,17.20
2023-05-06T11:04:52.733Z,17.77
2023-05-06T11:07:25.270Z,18.83
2023-05-06T11:09:57.490Z,14.93
2023-05-06T11:12:47.037Z,17.10
2023-05-06T11:15:39.111Z,18.27
2023-05-06T11:18:42.784Z,16.50
2023-05-06T11:21:40.595Z,18.50
2023-05-06T11:24:16.236Z,19.07
2023-05-06T11:26:44.505Z,20.45
2023-05-06T11:29:12.304Z,20.83
2023-05-06T11:31:42.382Z,17.77
2023-05-06T11:34:12.093Z,15.80
2023-05-06T11:36:59.467Z,14.90
2023-05-06T11:39:30.855Z,15.80
2023-05-06T11:41:59.973Z,16.48
2023-05-06T11:44:29.400Z,16.83
2023-05-06T11:46:58.207Z,13.20
2023-05-06T11:49:26.749Z,10.00
2023-05-06T11:51:55.170Z,13.15
2023-05-06T11:54:23.696Z,15.23
2023-05-06T11:56:54.392Z,14.52
2023-05-06T11:59:33.333Z,14.20
2023-05-06T12:02:03.837Z,13.60
2023-05-06T12:04:38.964Z,12.75
2023-05-06T12:07:08.043Z,17.52
2023-05-06T12:09:37.088Z,12.75
2023-05-06T12:12:07.785Z,10.35
2023-05-06T12:14:37.126Z,12.23
2023-05-06T12:17:05.976Z,13.55
2023-05-06T12:19:34.271Z,14.88
2023-05-06T12:22:19.225Z,12.35
2023-05-06T12:24:47.610Z,13.60
2023-05-06T12:27:29.804Z,14.43
2023-05-06T12:29:57.672Z,17.80
2023-05-06T12:32:25.477Z,12.23
2023-05-06T12:34:53.325Z,16.42
2023-05-06T12:37:29.650Z,15.90
2023-05-06T12:39:59.222Z,14.20
2023-05-06T12:42:37.459Z,17.05
2023-05-06T12:45:14.766Z,19.38
2023-05-06T12:47:53.503Z,18.25
2023-05-06T12:50:32.421Z,15.95
2023-05-06T12:53:00.417Z,19.03
2023-05-06T12:55:28.294Z,18.60
2023-05-06T12:57:57.996Z,16.70
2023-05-06T13:00:25.978Z,18.80
2023-05-06T13:02:53.870Z,22.75
2023-05-06T13:05:21.821Z,21.20
2023-05-06T13:07:51.202Z,22.52
2023-05-06T13:10:18.958Z,19.38
2023-05-06T13:12:46.848Z,23.85
2023-05-06T13:15:16.149Z,19.83
2023-05-06T13:17:43.987Z,16.83
2023-05-06T13:20:14.043Z,20.88
2023-05-06T13:22:53.719Z,20.77
2023-05-06T13:25:22.112Z,20.38
2023-05-06T13:27:50.047Z,21.08
2023-05-06T13:30:19.194Z,21.47
2023-05-06T13:32:49.391Z,19.45
2023-05-06T13:35:17.155Z,15.52
2023-05-06T13:37:45.033Z,14.52
2023-05-06T13:40:14.547Z,15.75
2023-05-06T13:42:42.446Z,18.67
2023-05-06T13:45:11.086Z,12.82
2023-05-06T13:47:40.186Z,18.45
2023-05-06T13:50:09.048Z,16.90
2023-05-06T13:52:36.958Z,14.63
2023-05-06T13:55:05.160Z,17.47
2023-05-06T13:57:33.115Z,20.27
2023-05-06T14:00:01.111Z,20.83
2023-05-06T14:02:29.011Z,17.08
2023-05-06T14:04:58.185Z,16.73
2023-05-06T14:07:26.049Z,16.20
2023-05-06T14:09:53.725Z,18.13
2023-05-06T14:12:22.898Z,18.40
2023-05-06T14:14:50.733Z,14.30
2023-05-06T14:17:18.762Z,14.65
2023-05-06T14:19:46.695Z,14.97
2023-05-06T14:22:16.071Z,17.25
2023-05-06T14:24:43.894Z,17.38
2023-05-06T14:27:11.632Z,17.00
2023-05-06T14:29:43.044Z,15.57
2023-05-06T14:32:10.887Z,14.33
2023-05-06T14:34:39.338Z,14.13
2023-05-06T14:37:07.950Z,19.25
2023-05-06T14:39:37.091Z,13.25
2023-05-06T14:42:05.079Z,16.92
2023-05-06T14:44:32.852Z,14.83
2023-05-06T14:47:00.677Z,11.52
2023-05-06T14:49:28.555Z,13.02
2023-05-06T14:51:57.218Z,12.00
2023-05-06T14:54:26.726Z,11.93
2023-05-06T14:56:56.532Z,11.17
2023-05-06T14:59:24.247Z,11.40
2023-05-06T15:01:52.017Z,14.73
2023-05-06T15:04:19.764Z,11.85
2023-05-06T15:06:47.625Z,14.88
2023-05-06T15:09:15.770Z,11.43
2023-05-06T15:11:44.188Z,11.80
2023-05-06T15:14:13.297Z,11.93
2023-05-06T15:16:41.444Z,13.85
2023-05-06T15:19:09.347Z,11.93
2023-05-06T15:21:37.102Z,12.07
2023-05-06T15:24:05.547Z,12.95
2023-05-06T15:26:33.315Z,12.68
2023-05-06T15:29:01.165Z,11.18
2023-05-06T15:31:32.217Z,11.38
2023-05-06T15:34:00.870Z,9.97
2023-05-06T15:36:29.122Z,13.45
2023-05-06T15:39:00.450Z,13.45
2023-05-06T15:41:30.564Z,13.65
2023-05-06T15:43:59.143Z,13.38
2023-05-06T15:46:27.459Z,11.60
2023-05-06T15:49:15.608Z,12.15
2023-05-06T15:51:44.660Z,13.57
2023-05-06T15:54:13.087Z,14.80
2023-05-06T15:56:41.612Z,13.40
2023-05-06T15:59:09.834Z,13.87
2023-05-06T16:02:19.040Z,13.20
2023-05-06T16:04:28.361Z,15.40
2023-05-06T16:06:56.231Z,15.18
2023-05-06T16:09:24.463Z,14.93
2023-05-06T16:11:52.399Z,14.93
2023-05-06T16:14:20.756Z,12.80
2023-05-06T16:16:48.696Z,17.33
2023-05-06T16:19:16.582Z,13.07
2023-05-06T16:21:45.789Z,13.93
2023-05-06T16:24:13.593Z,15.53
2023-05-06T16:26:41.395Z,15.90
2023-05-06T16:29:10.122Z,11.98
2023-05-06T16:31:38.460Z,10.40
2023-05-06T16:34:06.402Z,11.60
2023-05-06T16:36:34.518Z,9.47
2023-05-06T16:39:03.712Z,12.23
2023-05-06T16:41:31.474Z,9.35
2023-05-06T16:43:59.430Z,6.90
2023-05-06T16:46:28.666Z,7.13
2023-05-06T16:48:56.494Z,8.47
2023-05-06T16:51:24.737Z,11.43
2023-05-06T16:53:52.517Z,9.85
2023-05-06T16:56:22.672Z,10.27
2023-05-06T16:58:50.576Z,8.60
2023-05-06T17:01:18.465Z,7.87
2023-05-06T17:03:46.345Z,8.23
2023-05-06T17:06:14.399Z,7.93
2023-05-06T17:08:42.152Z,12.27
2023-05-06T17:11:09.876Z,8.07
2023-05-06T17:13:41.975Z,9.93
2023-05-06T17:16:09.898Z,9.65
2023-05-06T17:18:37.660Z,10.02
2023-05-06T17:21:08.500Z,10.93
2023-05-06T17:23:36.472Z,8.80
2023-05-06T17:26:09.753Z,11.10
2023-05-06T17:28:39.894Z,10.82
2023-05-06T17:31:08.132Z,11.07
2023-05-06T17:33:36.723Z,9.50
2023-05-06T17:36:04.619Z,9.93
2023-05-06T17:38:35.175Z,13.50
2023-05-06T17:41:03.120Z,9.88
2023-05-06T17:43:30.918Z,9.90
2023-05-06T17:46:00.336Z,12.05
2023-05-06T17:48:28.158Z,10.93
2023-05-06T17:51:01.111Z,9.30
2023-05-06T17:53:29.067Z,11.02
2023-05-06T17:55:57.063Z,14.50
2023-05-06T17:58:24.974Z,14.30
2023-05-06T18:00:52.818Z,14.50
2023-05-06T18:03:22.185Z,10.83
2023-05-06T18:06:14.066Z,14.40
2023-05-06T18:08:45.519Z,11.68
2023-05-06T18:11:13.427Z,11.60
2023-05-06T18:13:41.164Z,14.43
2023-05-06T18:16:09.173Z,14.90
2023-05-06T18:18:38.491Z,13.43
2023-05-06T18:21:06.451Z,14.75
2023-05-06T18:23:34.371Z,17.63
2023-05-06T18:26:07.565Z,19.15
2023-05-06T18:28:37.774Z,15.23
2023-05-06T18:31:06.027Z,14.82
2023-05-06T18:33:34.601Z,20.17
2023-05-06T18:36:04.145Z,20.05
2023-05-06T18:38:31.980Z,23.52
2023-05-06T18:40:59.847Z,19.53
2023-05-06T18:43:28.585Z,21.25
2023-05-06T18:45:56.627Z,23.80
2023-05-06T18:48:24.600Z,17.85
2023-05-06T18:50:54.235Z,17.60
2023-05-06T18:53:23.305Z,23.53
2023-05-06T18:55:51.625Z,22.90
2023-05-06T18:58:19.590Z,23.42
2023-05-06T19:00:47.499Z,18.85
2023-05-06T19:03:15.282Z,21.08
2023-05-06T19:05:45.827Z,22.23
2023-05-06T19:08:14.033Z,22.42
2023-05-06T19:10:43.250Z,21.90
2023-05-06T19:13:11.731Z,19.60
2023-05-06T19:15:39.450Z,20.58
2023-05-06T19:18:07.716Z,21.53
2023-05-06T19:20:35.664Z,23.17
2023-05-06T19:23:04.846Z,19.08
2023-05-06T19:25:33.963Z,14.32
2023-05-06T19:28:03.285Z,16.52
2023-05-06T19:30:33.360Z,16.97
2023-05-06T19:33:01.531Z,18.27
2023-05-06T19:35:29.383Z,18.83
2023-05-06T19:37:57.253Z,13.88
2023-05-06T19:40:25.062Z,15.48
2023-05-06T19:42:53.749Z,17.40
2023-05-06T19:45:23.110Z,16.75
2023-05-06T19:47:50.888Z,17.40
2023-05-06T19:50:18.846Z,15.23
2023-05-06T19:52:46.597Z,17.33
2023-05-06T19:55:14.416Z,17.63
2023-05-06T19:57:42.240Z,17.00
2023-05-06T20:00:11.876Z,18.77
2023-05-06T20:02:41.425Z,16.17
2023-05-06T20:05:10.232Z,16.02
2023-05-06T20:07:38.624Z,15.87
2023-05-06T20:10:07.475Z,14.02
2023-05-06T20:12:35.506Z,18.02
2023-05-06T20:15:03.575Z,18.00
2023-05-06T20:17:31.409Z,16.42
2023-05-06T20:20:02.592Z,17.83
2023-05-06T20:22:32.330Z,22.10
2023-05-06T20:25:09.497Z,20.92
2023-05-06T20:27:40.875Z,18.90
2023-05-06T20:30:10.476Z,15.55
2023-05-06T20:32:39.158Z,17.23
2023-05-06T20:35:09.979Z,17.48
2023-05-06T20:37:38.171Z,15.88
2023-05-06T20:40:07.789Z,14.10
2023-05-06T20:42:36.029Z,17.00
2023-05-06T20:45:05.476Z,13.07
2023-05-06T20:47:33.637Z,16.50
2023-05-06T20:50:01.615Z,14.85
2023-05-06T20:52:30.984Z,15.10
2023-05-06T20:54:59.063Z,15.35
2023-05-06T20:57:28.398Z,14.60
2023-05-06T20:59:56.187Z,14.43
2023-05-06T21:02:24.101Z,13.68
2023-05-06T21:04:51.878Z,14.60
2023-05-06T21:07:19.625Z,16.35
2023-05-06T21:09:48.766Z,13.53
2023-05-06T21:12:16.553Z,13.70
2023-05-06T21:14:44.313Z,16.90
2023-05-06T21:17:12.743Z,13.25
2023-05-06T21:19:40.543Z,14.18
2023-05-06T21:22:10.806Z,13.93
2023-05-06T21:24:38.609Z,13.55
2023-05-06T21:27:07.726Z,14.15
2023-05-06T21:29:35.465Z,15.95
2023-05-06T21:32:03.201Z,16.70
2023-05-06T21:34:31.361Z,17.37
2023-05-06T21:36:59.110Z,16.60
2023-05-06T21:39:27.004Z,15.68
2023-05-06T21:41:54.831Z,16.15
2023-05-06T21:44:23.965Z,17.42
2023-05-06T21:46:51.753Z,17.47
2023-05-06T21:49:21.882Z,18.52
2023-05-06T21:51:49.778Z,18.67
2023-05-06T21:54:17.850Z,18.83
2023-05-06T21:56:45.849Z,21.00
2023-05-06T21:59:13.636Z,20.33
2023-05-06T22:01:43.030Z,20.00
2023-05-06T22:04:12.838Z,21.52
2023-05-06T22:06:41.115Z,20.00
2023-05-06T22:09:09.956Z,20.35
2023-05-06T22:11:38.727Z,19.83
2023-05-06T22:14:07.063Z,19.75
2023-05-06T22:16:37.744Z,21.17
2023-05-06T22:19:07.722Z,22.95
2023-05-06T22:21:35.860Z,20.35
2023-05-06T22:24:03.674Z,21.33
2023-05-06T22:26:32.982Z,22.05
2023-05-06T22:29:00.796Z,23.45
2023-05-06T22:31:28.601Z,23.50
2023-05-06T22:33:58.059Z,21.50
2023-05-06T22:36:29.444Z,21.43
2023-05-06T22:38:57.461Z,19.75
2023-05-06T22:41:25.941Z,19.98
2023-05-06T22:43:53.782Z,22.42
2023-05-06T22:46:21.630Z,20.95
2023-05-06T22:48:49.876Z,21.83
2023-05-06T22:51:17.951Z,21.23
2023-05-06T22:53:47.130Z,21.85
2023-05-06T22:56:14.903Z,20.15
2023-05-06T22:58:42.668Z,23.00
2023-05-06T23:01:10.460Z,21.70
2023-05-06T23:03:38.537Z,19.75
2023-05-06T23:06:06.618Z,20.52
2023-05-06T23:08:34.338Z,20.00
2023-05-06T23:11:03.530Z,22.70
2023-05-06T23:13:35.989Z,21.33
2023-05-06T23:16:03.870Z,22.05
2023-05-06T23:18:31.653Z,19.33
2023-05-06T23:20:59.433Z,21.70
2023-05-06T23:23:27.127Z,20.92
2023-05-06T23:25:55.308Z,22.57
2023-05-06T23:28:24.605Z,20.83
2023-05-06T23:30:52.403Z,23.60
2023-05-06T23:33:20.161Z,20.88
2023-05-06T23:35:47.841Z,19.83
2023-05-06T23:38:15.580Z,19.53
2023-05-06T23:40:43.360Z,19.38
2023-05-06T23:43:11.301Z,19.15
2023-05-06T23:45:40.668Z,18.48
2023-05-06T23:48:08.541Z,20.17
2023-05-06T23:50:36.343Z,21.07
2023-05-06T23:53:04.294Z,20.30
2023-05-06T23:55:32.389Z,19.42
2023-05-06T23:58:00.212Z,19.20
